Time;durP1;ratioP1;P1;durP2;ratioP2;P2;SDS_P1;SDS_P2;PMS_P1;PMS_P2;Temp;Humidity;BMP_temperature;BMP_pressure;BME280_temperature;BME280_humidity;BME280_pressure;Samples;Min_cycle;Max_cycle;Signal;HPM_P1;HPM_P2
2022/02/05 00:00:31;;;;;;;3.43;2.00;;;4.70;99.90;;;;;;4983057;28;20184;-64
2022/02/05 00:05:56;;;;;;;1.80;1.57;;;4.50;99.90;;;;;;4990322;28;20435;-64
2022/02/05 00:43:14;;;;;;;3.10;1.70;;;3.80;99.90;;;;;;4986085;28;20486;-65
2022/02/05 00:45:44;;;;;;;1.80;1.23;;;3.70;99.90;;;;;;4980353;28;20449;-64
2022/02/05 00:48:12;;;;;;;1.73;1.20;;;3.60;99.90;;;;;;4982027;28;20451;-65
2022/02/05 00:50:41;;;;;;;3.13;1.60;;;3.60;99.90;;;;;;4973653;28;22087;-65
2022/02/05 00:53:16;;;;;;;2.20;2.00;;;3.50;99.90;;;;;;4972437;28;20451;-65
2022/02/05 00:55:50;;;;;;;1.30;1.20;;;3.40;99.90;;;;;;4990594;28;20441;-64
2022/02/05 00:58:16;;;;;;;1.30;1.20;;;3.30;99.90;;;;;;4990317;28;21128;-64
2022/02/05 01:00:41;;;;;;;3.63;1.77;;;3.30;99.90;;;;;;4975520;28;20497;-64
2022/02/05 01:03:07;;;;;;;3.83;1.40;;;3.20;99.90;;;;;;4988005;28;20199;-65
2022/02/05 01:05:35;;;;;;;3.80;1.17;;;3.20;99.90;;;;;;4991634;28;20238;-65
2022/02/05 01:08:00;;;;;;;4.10;1.53;;;3.10;99.90;;;;;;4991764;28;20545;-64
2022/02/05 01:10:27;;;;;;;3.20;1.63;;;3.10;99.90;;;;;;4992214;28;20459;-65
2022/02/05 01:12:58;;;;;;;3.23;1.70;;;3.00;99.90;;;;;;4975610;28;20192;-65
2022/02/05 01:15:30;;;;;;;3.20;1.53;;;3.00;99.90;;;;;;4988545;28;20441;-65
2022/02/05 01:18:00;;;;;;;1.73;1.50;;;3.00;99.90;;;;;;4981159;28;20434;-65
2022/02/05 01:23:25;;;;;;;3.53;1.23;;;3.00;99.90;;;;;;4969230;28;20560;-64
2022/02/05 01:26:00;;;;;;;3.70;1.20;;;3.00;99.90;;;;;;4978560;28;20933;-65
2022/02/05 01:28:31;;;;;;;1.90;1.03;;;3.00;99.90;;;;;;4985115;28;20431;-65
2022/02/05 01:30:57;;;;;;;1.93;1.10;;;3.00;99.90;;;;;;4977188;28;20470;-65
2022/02/05 01:33:41;;;;;;;1.50;1.40;;;2.90;99.90;;;;;;4981334;28;20450;-65
2022/02/05 01:53:08;;;;;;;2.40;1.70;;;2.50;99.90;;;;;;4979560;28;20477;-64
2022/02/05 01:55:50;;;;;;;1.93;1.20;;;2.50;99.90;;;;;;4980364;28;20456;-65
2022/02/05 02:11:51;;;;;;;1.90;1.57;;;2.40;99.90;;;;;;4976992;28;20438;-64
2022/02/05 02:32:27;;;;;;;9.93;3.20;;;2.20;99.90;;;;;;4989532;28;20435;-65
2022/02/05 02:34:58;;;;;;;1.90;1.80;;;2.20;99.90;;;;;;4984964;28;20438;-64
2022/02/05 02:37:32;;;;;;;2.43;1.83;;;2.20;99.90;;;;;;4976764;28;20764;-65
2022/02/05 02:42:24;;;;;;;5.53;1.70;;;2.20;99.90;;;;;;4983215;28;20462;-65
2022/02/05 02:44:49;;;;;;;6.80;3.27;;;2.20;99.90;;;;;;4974738;28;20184;-65
2022/02/05 02:47:15;;;;;;;8.70;3.07;;;2.10;99.90;;;;;;4982255;28;20443;-65
2022/02/05 02:57:53;;;;;;;4.80;2.30;;;2.10;99.90;;;;;;4977071;28;20478;-66
2022/02/05 03:00:20;;;;;;;5.50;1.70;;;2.10;99.90;;;;;;4982868;28;20933;-64
2022/02/05 03:02:45;;;;;;;3.47;2.17;;;2.10;99.90;;;;;;4991879;28;20537;-65
2022/02/05 03:05:11;;;;;;;2.30;2.00;;;2.10;99.90;;;;;;4987892;28;20538;-65
2022/02/05 03:07:36;;;;;;;6.70;2.50;;;2.20;99.90;;;;;;4975011;28;20185;-65
2022/02/05 03:10:02;;;;;;;3.60;2.83;;;2.10;99.90;;;;;;4984849;28;20687;-66
2022/02/05 03:12:28;;;;;;;2.33;2.13;;;2.10;99.90;;;;;;4990942;28;20242;-65
2022/02/05 03:14:54;;;;;;;3.80;2.07;;;2.10;99.90;;;;;;4981183;28;20457;-65
2022/02/05 03:17:22;;;;;;;12.57;5.00;;;2.10;99.90;;;;;;4983686;28;20185;-65
2022/02/05 03:19:50;;;;;;;5.80;2.67;;;2.00;99.90;;;;;;4973250;28;20207;-65
2022/02/05 03:22:18;;;;;;;2.90;1.90;;;2.00;99.90;;;;;;4988578;28;20438;-65
2022/02/05 03:24:44;;;;;;;6.03;2.90;;;2.00;99.90;;;;;;4989733;28;20450;-65
2022/02/05 03:27:11;;;;;;;5.80;3.10;;;2.00;99.90;;;;;;4983792;28;20435;-65
2022/02/05 03:29:38;;;;;;;2.93;2.53;;;2.00;99.90;;;;;;4981496;28;20463;-65
2022/02/05 03:32:04;;;;;;;7.33;2.40;;;2.00;99.90;;;;;;4975046;28;20431;-65
2022/02/05 03:34:29;;;;;;;4.50;2.53;;;2.00;99.90;;;;;;4978916;28;20883;-65
2022/02/05 03:36:55;;;;;;;4.80;2.43;;;2.00;99.90;;;;;;4988305;28;20439;-65
2022/02/05 03:39:23;;;;;;;12.33;4.40;;;2.00;99.90;;;;;;4973363;28;20303;-65
2022/02/05 03:41:48;;;;;;;5.23;2.87;;;2.00;99.90;;;;;;4992095;28;20434;-66
2022/02/05 03:44:14;;;;;;;4.07;2.40;;;2.00;99.90;;;;;;4977596;28;20448;-65
2022/02/05 03:46:39;;;;;;;4.37;2.70;;;2.00;99.90;;;;;;4977787;28;20179;-65
2022/02/05 03:49:05;;;;;;;3.60;2.70;;;2.00;99.90;;;;;;4982712;28;20198;-65
2022/02/05 03:51:31;;;;;;;5.40;3.30;;;2.00;99.90;;;;;;4981230;28;20199;-65
2022/02/05 03:53:56;;;;;;;5.03;3.40;;;2.00;99.90;;;;;;4986875;28;20231;-66
2022/02/05 03:56:22;;;;;;;2.80;2.37;;;2.00;99.90;;;;;;4985448;28;20270;-65
2022/02/05 03:58:47;;;;;;;4.67;2.73;;;2.00;99.90;;;;;;4983725;28;20176;-66
2022/02/05 04:01:14;;;;;;;3.47;2.90;;;2.00;99.90;;;;;;4975119;28;20993;-65
2022/02/05 04:03:39;;;;;;;3.50;2.30;;;2.00;99.90;;;;;;4973499;28;20204;-65
2022/02/05 04:06:05;;;;;;;2.70;2.40;;;2.10;99.90;;;;;;4985158;28;20563;-65
2022/02/05 04:08:31;;;;;;;4.60;3.07;;;2.20;99.90;;;;;;4989583;28;20183;-64
2022/02/05 04:11:14;;;;;;;3.40;3.10;;;2.30;99.90;;;;;;4985574;28;20685;-64
2022/02/05 04:16:24;;;;;;;5.43;3.17;;;2.30;99.90;;;;;;4982222;28;20433;-65
2022/02/05 04:18:54;;;;;;;4.07;2.20;;;2.30;99.90;;;;;;4975184;28;20805;-65
2022/02/05 04:21:21;;;;;;;6.10;3.30;;;2.30;99.90;;;;;;4974447;28;20204;-65
2022/02/05 04:23:48;;;;;;;2.80;2.30;;;2.40;99.90;;;;;;4980613;28;20989;-65
2022/02/05 04:26:15;;;;;;;3.90;3.20;;;2.40;99.90;;;;;;4984699;28;20473;-64
2022/02/05 04:28:41;;;;;;;3.60;2.87;;;2.40;99.90;;;;;;4973942;28;20541;-65
2022/02/05 04:31:07;;;;;;;5.57;3.00;;;2.40;99.90;;;;;;4975777;28;20462;-64
2022/02/05 04:33:32;;;;;;;2.90;2.53;;;2.50;99.90;;;;;;4985186;28;20454;-65
2022/02/05 04:35:58;;;;;;;5.47;2.20;;;2.50;99.90;;;;;;4983126;28;20183;-65
2022/02/05 04:38:24;;;;;;;3.93;2.10;;;2.60;99.90;;;;;;4998699;28;20177;-65
2022/02/05 04:41:02;;;;;;;6.23;2.60;;;2.60;99.90;;;;;;4986865;28;20167;-65
2022/02/05 04:51:45;;;;;;;7.80;2.50;;;2.70;99.90;;;;;;4980485;28;20470;-65
2022/02/05 05:00:02;;;;;;;6.83;3.30;;;2.70;99.90;;;;;;4986159;28;20866;-65
2022/02/05 05:05:47;;;;;;;6.43;2.57;;;2.70;99.90;;;;;;4915386;29;20453;-65
2022/02/05 05:15:20;;;;;;;6.47;2.13;;;2.60;99.90;;;;;;4994577;28;20449;-64
2022/02/05 05:21:49;;;;;;;4.13;2.03;;;2.40;99.90;;;;;;4991014;28;20446;-65
2022/02/05 05:24:15;;;;;;;3.23;2.17;;;2.40;99.90;;;;;;4994208;28;20541;-65
2022/02/05 05:26:40;;;;;;;3.17;2.87;;;2.40;99.90;;;;;;4980119;28;20613;-65
2022/02/05 05:29:06;;;;;;;6.57;2.80;;;2.40;99.90;;;;;;4983539;28;20186;-65
2022/02/05 05:31:32;;;;;;;2.67;2.10;;;2.30;99.90;;;;;;4987313;28;20218;-64
2022/02/05 05:33:57;;;;;;;4.40;3.03;;;2.30;99.90;;;;;;4991791;28;20210;-65
2022/02/05 05:36:23;;;;;;;2.90;2.60;;;2.30;99.90;;;;;;4994084;28;20550;-65
2022/02/05 05:38:48;;;;;;;4.10;2.33;;;2.30;99.90;;;;;;4980990;28;20184;-64
2022/02/05 05:41:14;;;;;;;3.47;2.30;;;2.40;99.90;;;;;;4978606;28;20182;-65
2022/02/05 05:51:18;;;;;;;2.87;2.20;;;2.40;99.90;;;;;;4976977;28;20498;-64
2022/02/05 05:53:44;;;;;;;4.63;2.87;;;2.40;99.90;;;;;;4981565;28;20446;-65
2022/02/05 05:56:09;;;;;;;2.93;2.67;;;2.40;99.90;;;;;;4978605;28;20458;-65
2022/02/05 05:58:35;;;;;;;3.50;2.80;;;2.40;99.90;;;;;;4981888;28;20486;-65
2022/02/05 06:01:00;;;;;;;9.20;3.83;;;2.50;99.90;;;;;;4981269;28;20695;-65
2022/02/05 06:03:26;;;;;;;5.70;3.20;;;2.50;99.90;;;;;;4978784;28;20275;-64
2022/02/05 06:05:52;;;;;;;4.37;2.73;;;2.50;99.90;;;;;;4983493;28;20180;-65
2022/02/05 06:08:18;;;;;;;5.53;2.60;;;2.60;99.90;;;;;;4981835;28;20210;-65
2022/02/05 06:10:44;;;;;;;6.33;2.70;;;2.60;99.90;;;;;;4989477;28;20197;-65
2022/02/05 06:13:11;;;;;;;4.43;2.43;;;2.70;99.90;;;;;;4992455;28;20944;-65
2022/02/05 06:15:39;;;;;;;4.57;2.83;;;2.70;99.90;;;;;;4992109;28;20180;-64
2022/02/05 06:18:04;;;;;;;5.03;3.00;;;2.70;99.90;;;;;;4979692;28;20510;-64
2022/02/05 06:20:30;;;;;;;3.83;3.53;;;2.80;99.90;;;;;;4975947;28;20442;-65
2022/02/05 06:22:56;;;;;;;6.23;3.63;;;2.80;99.90;;;;;;4977421;28;20207;-65
2022/02/05 06:25:21;;;;;;;5.80;3.70;;;2.80;99.90;;;;;;4975401;28;20186;-64
2022/02/05 06:27:47;;;;;;;4.07;2.93;;;2.80;99.90;;;;;;4991175;28;20183;-64
2022/02/05 06:30:13;;;;;;;4.40;2.63;;;2.80;99.90;;;;;;4984525;28;20196;-65
2022/02/05 06:32:39;;;;;;;6.90;3.13;;;2.80;99.90;;;;;;4982518;28;20529;-65
2022/02/05 06:35:05;;;;;;;4.30;3.07;;;2.80;99.90;;;;;;4979731;28;20548;-65
2022/02/05 06:37:30;;;;;;;4.57;2.73;;;2.80;99.90;;;;;;4974809;28;20435;-64
2022/02/05 06:39:56;;;;;;;6.30;2.97;;;2.70;99.90;;;;;;4991691;28;20951;-65
2022/02/05 06:42:21;;;;;;;2.83;2.63;;;2.80;99.90;;;;;;4986270;28;20180;-65
2022/02/05 06:44:47;;;;;;;6.10;3.20;;;2.80;99.90;;;;;;4991897;28;20205;-65
2022/02/05 06:47:12;;;;;;;3.90;2.87;;;2.80;99.90;;;;;;4976864;28;20187;-65
2022/02/05 06:49:38;;;;;;;4.73;3.20;;;2.80;99.90;;;;;;4974436;28;20184;-65
2022/02/05 06:52:06;;;;;;;3.37;3.00;;;2.90;99.90;;;;;;4974283;28;20196;-65
2022/02/05 06:54:32;;;;;;;6.90;3.00;;;2.90;99.90;;;;;;4974253;28;20230;-67
2022/02/05 06:56:57;;;;;;;6.87;2.80;;;2.80;99.90;;;;;;4973880;28;20464;-65
2022/02/05 06:59:23;;;;;;;3.73;3.40;;;2.70;99.90;;;;;;4989402;28;20180;-69
2022/02/05 07:01:49;;;;;;;4.57;2.37;;;2.70;99.90;;;;;;4984358;28;20179;-67
2022/02/05 07:04:14;;;;;;;5.00;3.50;;;2.70;99.90;;;;;;4993124;28;20194;-67
2022/02/05 07:06:40;;;;;;;6.30;3.77;;;2.70;99.90;;;;;;4976059;28;20311;-67
2022/02/05 07:09:06;;;;;;;4.10;3.70;;;2.70;99.90;;;;;;4976299;28;20259;-64
2022/02/05 07:11:34;;;;;;;5.40;3.20;;;2.70;99.90;;;;;;4982957;28;20207;-64
2022/02/05 07:14:01;;;;;;;3.83;2.70;;;2.70;99.90;;;;;;4986885;28;20447;-64
2022/02/05 07:16:33;;;;;;;8.17;3.97;;;2.80;99.90;;;;;;4986974;28;20434;-64
2022/02/05 07:19:16;;;;;;;5.70;3.73;;;2.80;99.90;;;;;;4981789;28;20427;-65
2022/02/05 07:21:47;;;;;;;4.67;3.33;;;2.70;99.90;;;;;;4981684;28;20440;-64
2022/02/05 07:29:41;;;;;;;3.47;3.10;;;3.00;99.90;;;;;;4981737;28;20458;-65
2022/02/05 07:32:07;;;;;;;7.83;3.40;;;3.10;99.90;;;;;;4974145;28;20913;-64
2022/02/05 07:34:36;;;;;;;4.07;2.70;;;3.30;99.90;;;;;;4973160;28;20195;-65
2022/02/05 07:37:03;;;;;;;4.70;3.10;;;3.50;99.90;;;;;;4973168;28;20438;-65
2022/02/05 07:39:37;;;;;;;3.37;2.97;;;3.60;99.90;;;;;;4973255;28;20439;-65
2022/02/05 07:42:03;;;;;;;8.13;3.57;;;3.70;99.90;;;;;;4973520;28;20458;-65
2022/02/05 07:44:29;;;;;;;3.97;2.87;;;3.80;99.90;;;;;;4973265;28;20447;-65
2022/02/05 07:46:59;;;;;;;5.40;3.00;;;4.00;99.90;;;;;;4973017;28;20812;-65
2022/02/05 07:49:24;;;;;;;5.83;3.30;;;4.10;99.90;;;;;;4972949;28;20428;-65
2022/02/05 07:51:50;;;;;;;4.73;3.27;;;4.30;99.90;;;;;;4973221;28;20498;-65
2022/02/05 07:54:16;;;;;;;4.60;2.90;;;4.50;99.90;;;;;;4973173;28;20658;-65
2022/02/05 07:56:46;;;;;;;3.20;1.97;;;4.60;99.90;;;;;;4972138;28;20180;-64
2022/02/05 07:59:12;;;;;;;4.83;2.63;;;4.70;99.90;;;;;;4972936;28;20227;-64
2022/02/05 08:01:38;;;;;;;4.90;3.17;;;4.80;99.90;;;;;;4972743;28;21004;-65
2022/02/05 08:04:05;;;;;;;3.80;2.80;;;5.10;99.90;;;;;;4972300;28;21123;-65
2022/02/05 08:06:32;;;;;;;2.93;2.73;;;5.20;99.90;;;;;;4972816;28;20939;-65
2022/02/05 08:09:01;;;;;;;3.60;2.80;;;5.50;99.90;;;;;;4973080;28;20952;-65
2022/02/05 08:11:38;;;;;;;4.67;2.30;;;5.90;99.90;;;;;;4972800;28;20534;-65
2022/02/05 08:14:09;;;;;;;2.27;2.13;;;6.20;99.90;;;;;;4971792;28;20884;-65
2022/02/05 08:19:08;;;;;;;3.37;2.77;;;6.90;99.90;;;;;;4973135;28;20428;-65
2022/02/05 08:21:34;;;;;;;4.80;2.43;;;7.20;99.90;;;;;;4972780;28;20430;-65
2022/02/05 08:23:59;;;;;;;5.50;2.27;;;7.00;99.90;;;;;;4972681;28;20946;-65
2022/02/05 08:26:30;;;;;;;4.47;2.20;;;7.20;99.90;;;;;;4972801;28;20423;-65
2022/02/05 08:28:56;;;;;;;4.13;2.33;;;7.40;99.90;;;;;;4973145;28;20635;-65
2022/02/05 08:31:22;;;;;;;2.80;2.10;;;7.80;99.90;;;;;;4973041;28;20542;-64
2022/02/05 08:33:48;;;;;;;3.50;2.87;;;7.80;99.90;;;;;;4973236;28;20571;-65
2022/02/05 08:36:16;;;;;;;6.00;3.20;;;8.40;99.90;;;;;;4972441;28;20179;-65
2022/02/05 08:38:41;;;;;;;5.40;2.70;;;8.30;99.90;;;;;;4972858;28;20260;-65
2022/02/05 08:41:06;;;;;;;6.70;1.83;;;8.60;99.90;;;;;;4973026;28;20526;-65
2022/02/05 08:43:32;;;;;;;1.83;1.70;;;8.60;99.90;;;;;;4972683;28;20748;-65
2022/02/05 08:45:58;;;;;;;3.63;2.07;;;8.30;99.90;;;;;;4972667;28;20306;-65
2022/02/05 08:48:24;;;;;;;3.20;2.57;;;8.60;99.90;;;;;;4972743;28;20200;-65
2022/02/05 08:50:49;;;;;;;3.87;2.13;;;8.80;99.90;;;;;;4972778;28;20458;-66
2022/02/05 08:53:19;;;;;;;3.47;3.17;;;9.20;99.90;;;;;;4972685;28;20701;-65
2022/02/05 08:55:45;;;;;;;2.70;2.33;;;9.70;99.90;;;;;;4972508;28;20172;-66
2022/02/05 08:58:11;;;;;;;4.37;2.60;;;10.60;99.90;;;;;;4972868;28;20450;-66
2022/02/05 09:00:45;;;;;;;5.27;3.20;;;11.50;99.90;;;;;;4972817;28;20419;-66
2022/02/05 09:03:20;;;;;;;3.53;2.03;;;11.80;99.90;;;;;;4972731;28;20552;-66
2022/02/05 09:05:48;;;;;;;4.53;2.77;;;12.00;99.90;;;;;;4972448;28;20505;-63
2022/02/05 09:08:25;;;;;;;2.17;1.97;;;12.20;99.90;;;;;;4972600;28;20783;-63
2022/02/05 09:14:00;;;;;;;4.03;2.77;;;13.00;98.80;;;;;;4969924;28;20466;-64
2022/02/05 09:16:26;;;;;;;6.07;4.93;;;13.60;97.80;;;;;;4971940;28;20426;-63
2022/02/05 09:18:52;;;;;;;7.60;5.50;;;14.80;94.60;;;;;;4971133;28;20940;-66
2022/02/05 09:21:18;;;;;;;5.27;2.83;;;16.00;92.30;;;;;;4972659;28;20211;-66
2022/02/05 09:23:45;;;;;;;3.40;2.60;;;14.80;91.10;;;;;;4972396;28;20471;-63
2022/02/05 09:26:12;;;;;;;3.73;1.87;;;15.30;90.70;;;;;;4974091;28;20256;-64
2022/02/05 09:28:41;;;;;;;3.40;2.40;;;16.10;88.40;;;;;;4975829;28;20498;-63
2022/02/05 09:33:34;;;;;;;3.03;2.40;;;15.90;82.00;;;;;;4975820;28;20538;-63
2022/02/05 09:36:00;;;;;;;4.57;2.20;;;14.10;86.50;;;;;;4975406;28;20251;-63
2022/02/05 09:38:26;;;;;;;5.83;2.37;;;14.20;90.20;;;;;;4975659;28;20839;-63
2022/02/05 09:40:52;;;;;;;4.37;2.67;;;16.30;84.90;;;;;;4975462;28;20587;-64
2022/02/05 09:43:27;;;;;;;5.73;2.80;;;17.40;79.60;;;;;;4975443;28;20941;-64
2022/02/05 09:45:56;;;;;;;6.90;2.80;;;16.60;78.60;;;;;;4975593;28;20283;-64
2022/02/05 09:48:23;;;;;;;5.50;2.03;;;15.90;79.10;;;;;;4975393;28;20451;-64
2022/02/05 09:50:49;;;;;;;4.57;2.43;;;15.40;79.60;;;;;;4975406;28;20526;-64
2022/02/05 09:53:16;;;;;;;6.60;4.57;;;15.70;81.10;;;;;;4975344;28;20522;-64
2022/02/05 09:55:44;;;;;;;6.00;2.80;;;15.90;79.10;;;;;;4975095;28;20447;-64
2022/02/05 09:58:10;;;;;;;4.97;2.30;;;17.00;77.20;;;;;;4975453;28;20439;-64
2022/02/05 10:00:36;;;;;;;3.40;2.00;;;16.50;76.70;;;;;;4975344;28;20925;-66
2022/02/05 10:03:03;;;;;;;4.13;2.07;;;16.00;76.30;;;;;;4975188;28;20448;-64
2022/02/05 10:05:32;;;;;;;2.07;1.63;;;16.10;76.20;;;;;;4974954;28;20446;-64
2022/02/05 10:08:08;;;;;;;7.60;1.70;;;16.00;76.80;;;;;;4975564;28;20428;-66
2022/02/05 10:10:43;;;;;;;3.97;2.00;;;17.40;73.70;;;;;;4974974;28;21010;-65
2022/02/05 10:13:10;;;;;;;2.67;1.80;;;18.40;69.60;;;;;;4973808;28;20450;-64
2022/02/05 10:15:37;;;;;;;4.20;1.90;;;19.10;67.70;;;;;;4974888;28;20502;-65
2022/02/05 10:18:03;;;;;;;4.37;1.93;;;18.30;64.90;;;;;;4975066;28;20416;-65
2022/02/05 10:20:29;;;;;;;7.60;3.23;;;17.70;66.10;;;;;;4975033;28;20411;-66
2022/02/05 10:22:57;;;;;;;5.30;2.23;;;19.00;66.50;;;;;;4974692;28;20211;-66
2022/02/05 10:25:28;;;;;;;3.60;2.00;;;19.90;61.80;;;;;;4974650;28;20795;-67
2022/02/05 10:27:55;;;;;;;6.60;2.43;;;19.20;59.70;;;;;;4974897;28;20471;-65
2022/02/05 10:30:26;;;;;;;4.43;2.03;;;19.60;60.60;;;;;;4974732;28;20491;-66
2022/02/05 10:33:05;;;;;;;4.03;1.60;;;19.10;58.90;;;;;;4974822;28;20486;-66
2022/02/05 10:35:50;;;;;;;3.37;1.80;;;18.70;59.90;;;;;;4974654;28;20455;-64
2022/02/05 10:39:10;;;;;;;3.60;1.90;;;17.60;58.80;;;;;;4974793;28;20426;-64
2022/02/05 10:43:52;;;;;;;4.00;1.80;;;17.50;62.60;;;;;;4974509;28;20497;-65
2022/02/05 10:46:18;;;;;;;5.57;2.03;;;19.40;58.50;;;;;;4974228;28;20455;-65
2022/02/05 10:48:43;;;;;;;3.90;2.10;;;19.40;56.90;;;;;;4974261;28;20470;-65
2022/02/05 10:51:09;;;;;;;2.47;2.10;;;20.40;57.00;;;;;;4974391;28;20678;-65
2022/02/05 10:53:43;;;;;;;5.53;1.80;;;20.90;53.60;;;;;;4974308;28;20600;-65
2022/02/05 10:56:15;;;;;;;3.10;1.50;;;21.40;53.60;;;;;;4974123;28;20255;-65
2022/02/05 11:07:08;;;;;;;3.80;1.70;;;19.20;54.30;;;;;;4974109;28;20810;-66
2022/02/05 11:09:34;;;;;;;2.83;1.70;;;18.70;54.00;;;;;;4973991;28;20424;-66
2022/02/05 11:20:22;;;;;;;2.83;2.17;;;19.00;50.90;;;;;;4974252;28;20426;-65
2022/02/05 11:22:50;;;;;;;3.13;1.57;;;18.40;52.90;;;;;;4973403;28;20443;-66
2022/02/05 11:25:17;;;;;;;3.40;2.10;;;18.60;52.80;;;;;;4973507;28;20506;-65
2022/02/05 11:27:44;;;;;;;3.27;1.87;;;18.00;53.30;;;;;;4973937;28;20502;-65
2022/02/05 11:30:31;;;;;;;4.40;2.20;;;19.20;53.10;;;;;;4973773;28;20452;-65
2022/02/05 11:33:02;;;;;;;4.37;1.47;;;19.30;51.10;;;;;;4973707;28;20439;-65
2022/02/05 11:36:09;;;;;;;3.90;1.90;;;20.00;50.90;;;;;;4973424;28;20411;-65
2022/02/05 11:38:35;;;;;;;2.40;2.03;;;20.80;48.80;;;;;;4973522;28;20430;-65
2022/02/05 11:41:02;;;;;;;5.30;2.73;;;19.50;49.50;;;;;;4973751;28;20503;-65
2022/02/05 11:43:40;;;;;;;3.07;1.80;;;18.30;51.40;;;;;;4973799;28;20509;-65
2022/02/05 11:46:09;;;;;;;2.73;1.57;;;18.30;51.50;;;;;;4973315;28;20427;-65
2022/02/05 11:48:50;;;;;;;5.90;4.93;;;19.10;51.40;;;;;;4972544;28;20458;-65
2022/02/05 11:51:24;;;;;;;4.30;2.47;;;20.10;50.20;;;;;;4973283;28;20958;-65
2022/02/05 11:53:55;;;;;;;3.23;2.03;;;21.10;48.40;;;;;;4973246;28;20447;-65
2022/02/05 11:56:22;;;;;;;3.63;1.23;;;22.10;47.40;;;;;;4973028;28;20438;-65
2022/02/05 11:58:57;;;;;;;2.90;1.80;;;22.50;45.70;;;;;;4973275;28;20424;-66
2022/02/05 12:01:37;;;;;;;4.50;2.30;;;23.00;46.20;;;;;;4973257;28;20423;-66
2022/02/05 12:04:10;;;;;;;3.73;2.10;;;23.60;44.50;;;;;;4973252;28;20439;-65
2022/02/05 12:06:58;;;;;;;2.93;1.80;;;23.50;42.70;;;;;;4973012;28;20415;-65
2022/02/05 12:09:40;;;;;;;2.93;1.50;;;23.10;43.50;;;;;;4973195;28;20482;-66
2022/02/05 12:12:24;;;;;;;4.40;2.07;;;23.80;41.70;;;;;;4973150;28;20423;-66
2022/02/05 12:15:12;;;;;;;2.27;1.40;;;24.20;41.50;;;;;;4973143;28;20502;-66
2022/02/05 12:18:04;;;;;;;2.70;1.90;;;24.60;39.40;;;;;;4973213;28;20411;-65
2022/02/05 12:20:51;;;;;;;3.03;2.13;;;23.90;41.00;;;;;;4973196;28;20430;-65
2022/02/05 12:25:58;;;;;;;5.03;4.37;;;23.60;40.60;;;;;;4972811;28;20428;-65
2022/02/05 12:28:36;;;;;;;3.70;1.83;;;24.40;40.90;;;;;;4973027;28;20491;-65
2022/02/05 12:31:25;;;;;;;2.50;1.40;;;24.20;40.30;;;;;;4972961;28;21011;-66
2022/02/05 12:34:09;;;;;;;2.47;1.80;;;24.20;39.80;;;;;;4963747;28;20454;-66
2022/02/05 12:36:41;;;;;;;3.30;1.30;;;24.40;39.40;;;;;;4972760;28;20447;-65
2022/02/05 12:39:12;;;;;;;2.10;1.77;;;22.30;40.50;;;;;;4972851;28;20422;-66
2022/02/05 12:41:44;;;;;;;3.10;1.80;;;22.20;42.20;;;;;;4972784;28;20947;-65
2022/02/05 12:44:10;;;;;;;3.00;1.87;;;21.30;41.60;;;;;;4972903;28;20446;-65
2022/02/05 12:46:42;;;;;;;4.57;1.93;;;20.80;42.70;;;;;;4972558;28;20423;-65
2022/02/05 12:49:21;;;;;;;3.53;1.87;;;19.90;43.50;;;;;;4972707;28;20180;-65
2022/02/05 12:51:51;;;;;;;2.80;1.90;;;19.40;44.80;;;;;;4972798;28;20991;-66
2022/02/05 12:54:21;;;;;;;3.63;1.43;;;21.00;43.00;;;;;;4972802;28;20837;-67
2022/02/05 12:56:48;;;;;;;5.97;2.20;;;21.10;42.70;;;;;;4972411;28;20490;-66
2022/02/05 12:59:26;;;;;;;2.83;1.70;;;21.10;42.50;;;;;;4973285;28;20455;-66
2022/02/05 13:01:57;;;;;;;7.80;4.67;;;22.60;41.60;;;;;;4976604;28;20462;-65
2022/02/05 13:04:25;;;;;;;2.97;1.93;;;22.90;40.20;;;;;;4976398;28;21020;-66
2022/02/05 13:07:05;;;;;;;3.30;1.20;;;23.20;39.40;;;;;;4976056;28;20864;-65
2022/02/05 13:09:36;;;;;;;3.53;1.40;;;23.00;39.90;;;;;;4976285;28;20423;-66
2022/02/05 13:12:05;;;;;;;3.00;1.67;;;23.50;39.00;;;;;;4976377;28;20451;-66
2022/02/05 13:14:44;;;;;;;2.17;1.13;;;25.30;37.80;;;;;;4976173;28;20458;-65
2022/02/05 13:24:41;;;;;;;2.13;1.50;;;23.80;37.80;;;;;;4976104;28;20423;-65
2022/02/05 13:34:14;;;;;;;5.80;1.40;;;24.10;36.10;;;;;;4975956;28;20449;-66
2022/02/05 13:36:48;;;;;;;2.90;1.63;;;24.60;37.10;;;;;;4975505;28;20458;-66
2022/02/05 13:47:20;;;;;;;3.63;2.03;;;25.30;35.20;;;;;;4975579;28;20443;-66
2022/02/05 13:50:08;;;;;;;3.80;3.37;;;25.30;35.60;;;;;;4975554;28;20419;-65
2022/02/05 13:52:40;;;;;;;1.90;1.80;;;25.40;36.10;;;;;;4975375;28;20408;-65
2022/02/05 13:55:14;;;;;;;2.97;2.07;;;26.70;35.00;;;;;;4975161;28;20897;-65
2022/02/05 13:58:04;;;;;;;6.80;4.00;;;27.20;34.10;;;;;;4975616;28;20419;-65
2022/02/05 14:00:36;;;;;;;2.30;1.43;;;24.70;34.70;;;;;;4975478;28;20828;-66
2022/02/05 14:03:03;;;;;;;4.30;2.27;;;21.60;37.80;;;;;;4975149;28;20454;-65
2022/02/05 14:05:28;;;;;;;8.87;2.40;;;21.30;39.40;;;;;;4974932;28;20435;-65
2022/02/05 14:07:54;;;;;;;2.90;2.40;;;21.80;38.90;;;;;;4975352;28;20462;-65
2022/02/05 14:10:21;;;;;;;2.60;1.63;;;20.30;39.60;;;;;;4975021;28;20197;-66
2022/02/05 14:12:52;;;;;;;4.90;1.57;;;18.80;41.50;;;;;;4974554;28;20278;-65
2022/02/05 14:15:20;;;;;;;2.37;1.17;;;16.90;43.90;;;;;;4974829;28;20420;-66
2022/02/05 14:17:46;;;;;;;3.50;1.47;;;15.10;46.80;;;;;;4975096;28;20439;-65
2022/02/05 14:20:13;;;;;;;2.70;1.30;;;14.00;48.90;;;;;;4974886;28;20423;-65
2022/02/05 14:22:43;;;;;;;2.00;1.47;;;13.00;50.30;;;;;;4974900;28;20429;-67
2022/02/05 14:25:16;;;;;;;2.30;1.70;;;12.20;51.50;;;;;;4974743;28;20795;-67
2022/02/05 14:28:13;;;;;;;2.07;1.33;;;11.50;53.20;;;;;;4974942;28;20459;-68
2022/02/05 14:30:43;;;;;;;3.57;2.00;;;10.70;55.20;;;;;;4974816;28;20526;-67
2022/02/05 14:33:09;;;;;;;6.23;1.80;;;10.50;56.50;;;;;;4974658;28;20446;-67
2022/02/05 14:40:48;;;;;;;2.80;2.00;;;9.90;58.30;;;;;;4974711;28;20459;-67
2022/02/05 14:43:17;;;;;;;1.70;1.37;;;9.90;59.10;;;;;;4974677;28;20832;-66
2022/02/05 14:45:45;;;;;;;2.60;1.30;;;9.60;59.40;;;;;;4974244;28;20272;-66
2022/02/05 14:48:11;;;;;;;3.37;1.40;;;9.50;60.30;;;;;;4974424;28;20523;-66
2022/02/05 14:50:36;;;;;;;4.60;1.33;;;9.50;61.40;;;;;;4974454;28;20459;-67
2022/02/05 14:53:02;;;;;;;6.00;1.97;;;9.40;62.00;;;;;;4974457;28;20963;-66
2022/02/05 14:55:28;;;;;;;5.60;1.70;;;9.30;63.00;;;;;;4974131;28;20180;-66
2022/02/05 14:57:54;;;;;;;2.23;1.23;;;9.00;63.50;;;;;;4974478;28;20630;-66
2022/02/05 15:00:20;;;;;;;3.83;1.40;;;8.70;64.70;;;;;;4974239;28;20176;-66
2022/02/05 15:02:45;;;;;;;3.30;1.43;;;8.50;66.10;;;;;;4974298;28;20495;-66
2022/02/05 15:05:12;;;;;;;1.90;1.50;;;8.40;69.20;;;;;;4973872;28;20432;-66
2022/02/05 15:07:41;;;;;;;3.00;1.30;;;8.40;70.00;;;;;;4974226;28;20173;-66
2022/02/05 15:10:10;;;;;;;2.33;1.57;;;8.30;69.40;;;;;;4973940;28;20462;-67
2022/02/05 15:12:37;;;;;;;4.47;2.20;;;8.30;71.60;;;;;;4974002;28;20758;-67
2022/02/05 15:15:10;;;;;;;2.50;1.70;;;8.30;71.80;;;;;;4973739;28;20777;-67
2022/02/05 15:17:41;;;;;;;3.30;1.50;;;8.30;72.20;;;;;;4974055;28;20420;-67
2022/02/05 15:20:07;;;;;;;2.00;1.37;;;8.30;72.90;;;;;;4973954;28;20431;-66
2022/02/05 15:22:33;;;;;;;1.57;1.47;;;8.20;74.80;;;;;;4973645;28;20424;-66
2022/02/05 15:24:58;;;;;;;1.50;1.30;;;8.10;74.90;;;;;;4973611;28;20932;-67
2022/02/05 15:27:24;;;;;;;3.37;1.43;;;8.00;76.30;;;;;;4973663;28;20184;-67
2022/02/05 15:29:49;;;;;;;6.23;1.50;;;7.90;77.30;;;;;;4973684;28;20254;-66
2022/02/05 15:32:15;;;;;;;2.40;1.00;;;7.80;77.40;;;;;;4973631;28;20181;-67
2022/02/05 15:34:41;;;;;;;3.20;1.77;;;7.80;78.60;;;;;;4973490;28;20184;-66
2022/02/05 15:37:14;;;;;;;2.30;1.10;;;7.80;79.20;;;;;;4973353;28;20168;-67
2022/02/05 15:45:01;;;;;;;3.30;1.53;;;7.60;83.30;;;;;;4973616;28;20850;-67
2022/02/05 15:47:27;;;;;;;4.00;2.33;;;7.50;84.50;;;;;;4973280;28;20431;-67
2022/02/05 15:49:52;;;;;;;9.00;2.23;;;7.40;86.00;;;;;;4972029;28;20426;-66
2022/02/05 15:52:19;;;;;;;3.37;1.47;;;7.40;86.80;;;;;;4973556;28;20210;-67
2022/02/05 15:54:45;;;;;;;4.63;1.40;;;7.20;88.10;;;;;;4973136;28;20443;-67
2022/02/05 16:02:11;;;;;;;2.07;1.60;;;7.00;90.90;;;;;;4973182;28;20522;-67
2022/02/05 16:04:37;;;;;;;2.40;1.30;;;7.00;91.70;;;;;;4973173;28;20876;-67
2022/02/05 16:07:03;;;;;;;1.97;1.63;;;7.00;92.50;;;;;;4973446;28;20263;-66
2022/02/05 16:09:28;;;;;;;6.80;1.80;;;7.00;92.50;;;;;;4973083;28;20530;-66
2022/02/05 16:11:54;;;;;;;4.63;1.73;;;6.90;92.90;;;;;;4973064;28;20216;-66
2022/02/05 16:14:19;;;;;;;8.10;4.67;;;6.90;93.20;;;;;;4972989;28;20192;-66
2022/02/05 16:16:45;;;;;;;7.40;2.30;;;6.80;93.80;;;;;;4972727;28;20686;-66
2022/02/05 16:19:10;;;;;;;7.03;1.53;;;6.80;93.90;;;;;;4972981;28;20183;-66
2022/02/05 16:21:36;;;;;;;3.10;1.60;;;6.70;94.20;;;;;;4973106;28;20184;-66
2022/02/05 16:24:01;;;;;;;4.90;3.10;;;6.70;95.20;;;;;;4972885;28;20641;-66
2022/02/05 16:26:27;;;;;;;1.73;1.50;;;6.70;95.70;;;;;;4972693;28;20210;-66
2022/02/05 16:28:52;;;;;;;4.33;1.97;;;6.50;96.10;;;;;;4972886;28;20184;-66
2022/02/05 16:31:18;;;;;;;1.57;1.27;;;6.50;97.10;;;;;;4972734;28;20520;-66
2022/02/05 16:33:44;;;;;;;2.83;1.70;;;6.40;97.70;;;;;;4972763;28;20188;-66